Floyd, Virginia
Current Conditions -  °F | °C
As of 11:15 AM on Thursday 29 Jan 2015 (Local Time) from KBCB Reporting Station
Clear Clear  
Wind Chill: 36°   Ceiling: Unl
Heat Index: 39°   Visibility: 10mi
Dew Point: 19°   Wind: 5mph
Humidity: 43%   Direction: 160°SSE
Pressure: 30.17"   Gusts: NA
Location:  36.91°N, 80.32°W
Report Text: KBCB 291615Z AUTO 16004KT 10SM CLR 04/M07 A3017 RMK AO2 T00401075
Loading
Personal Weather Stations






























Interactive Weather Map New forecast layout! Learn more

10-Day Weather Forecast

Advertisements
Track Severe Weather on mobile